createdAt,value
2018-05-31T00:00:06.420Z,75.70
2018-05-31T00:01:06.055Z,75.90
2018-05-31T00:02:11.308Z,76.10
2018-05-31T00:03:05.714Z,76.20
2018-05-31T00:04:06.876Z,76.10
2018-05-31T00:05:05.574Z,76.80
2018-05-31T00:06:08.933Z,77.00
2018-05-31T00:07:09.812Z,76.80
2018-05-31T00:08:06.939Z,76.80
2018-05-31T00:09:05.599Z,76.60
2018-05-31T00:10:19.464Z,77.00
2018-05-31T00:11:11.481Z,76.80
2018-05-31T00:12:08.981Z,76.60
2018-05-31T00:13:05.586Z,76.60
2018-05-31T00:14:06.719Z,76.50
2018-05-31T00:15:06.827Z,76.40
2018-05-31T00:16:08.009Z,76.20
2018-05-31T00:17:08.062Z,76.10
2018-05-31T00:18:05.617Z,76.10
2018-05-31T00:19:09.008Z,76.10
2018-05-31T00:20:06.524Z,76.10
2018-05-31T00:21:08.239Z,76.10
2018-05-31T00:22:08.417Z,76.00
2018-05-31T00:23:05.998Z,76.10
2018-05-31T00:24:08.462Z,76.40
2018-05-31T00:25:06.267Z,76.30
2018-05-31T00:26:08.570Z,76.70
2018-05-31T00:27:06.066Z,76.50
2018-05-31T00:28:08.371Z,77.70
2018-05-31T00:29:06.596Z,77.80
2018-05-31T00:30:05.735Z,77.80
2018-05-31T00:31:08.882Z,77.30
2018-05-31T00:32:08.703Z,77.10
2018-05-31T00:33:06.420Z,77.10
2018-05-31T00:34:11.004Z,77.20
2018-05-31T00:35:06.452Z,76.90
2018-05-31T00:36:08.772Z,76.60
2018-05-31T00:37:06.414Z,76.60
2018-05-31T00:38:07.124Z,76.60
2018-05-31T00:39:08.452Z,76.90
2018-05-31T00:40:08.578Z,77.00
2018-05-31T00:41:08.649Z,77.10
2018-05-31T00:42:08.791Z,77.40
2018-05-31T00:43:06.848Z,77.40
2018-05-31T00:44:06.602Z,77.60
2018-05-31T00:45:06.425Z,77.80
2018-05-31T00:46:11.288Z,77.90
2018-05-31T00:47:06.466Z,78.00
2018-05-31T00:48:06.516Z,77.80
2018-05-31T00:49:09.016Z,78.10
2018-05-31T00:50:05.892Z,78.10
2018-05-31T00:51:05.703Z,78.30
2018-05-31T00:52:06.783Z,78.50
2018-05-31T00:53:08.888Z,78.60
2018-05-31T00:54:08.939Z,78.40
2018-05-31T00:55:06.424Z,78.40
2018-05-31T00:56:06.138Z,78.60
2018-05-31T00:57:05.962Z,78.70
2018-05-31T00:58:08.194Z,78.70
2018-05-31T00:59:10.715Z,78.70
2018-05-31T01:00:06.117Z,78.80
2018-05-31T01:01:10.983Z,78.80
2018-05-31T01:02:06.561Z,78.60
2018-05-31T01:03:06.656Z,78.70
2018-05-31T01:04:06.860Z,78.60
2018-05-31T01:05:09.168Z,78.90
2018-05-31T01:06:08.926Z,79.00
2018-05-31T01:07:06.444Z,78.90
2018-05-31T01:08:06.450Z,78.50
2018-05-31T01:09:06.097Z,78.40
2018-05-31T01:10:06.117Z,78.30
2018-05-31T01:11:06.115Z,78.40
2018-05-31T01:12:10.867Z,78.20
2018-05-31T01:13:08.891Z,78.00
2018-05-31T01:14:11.319Z,78.10
2018-05-31T01:15:06.324Z,78.30
2018-05-31T01:16:09.017Z,78.80
2018-05-31T01:17:05.820Z,78.70
2018-05-31T01:18:05.582Z,78.70
2018-05-31T01:19:08.789Z,78.30
2018-05-31T01:20:08.240Z,78.40
2018-05-31T01:21:08.400Z,78.30
2018-05-31T01:22:06.682Z,78.30
2018-05-31T01:23:11.320Z,78.40
2018-05-31T01:24:06.175Z,78.60
2018-05-31T01:25:06.533Z,78.40
2018-05-31T01:26:08.866Z,79.10
2018-05-31T01:27:05.468Z,79.10
2018-05-31T01:28:11.278Z,78.80
2018-05-31T01:29:06.485Z,78.80
2018-05-31T01:30:06.187Z,78.80
2018-05-31T01:31:06.304Z,78.70
2018-05-31T01:32:06.510Z,79.10
2018-05-31T01:33:06.104Z,79.10
2018-05-31T01:34:06.297Z,78.90
2018-05-31T01:35:13.396Z,78.90
2018-05-31T01:36:08.428Z,79.00
2018-05-31T01:37:05.949Z,79.00
2018-05-31T01:38:05.659Z,79.20
2018-05-31T01:39:06.857Z,79.00
2018-05-31T01:40:05.996Z,78.90
2018-05-31T01:41:06.014Z,78.80
2018-05-31T01:42:06.117Z,78.90
2018-05-31T01:43:06.213Z,78.80
2018-05-31T01:44:11.599Z,78.70
2018-05-31T01:45:06.250Z,78.80
2018-05-31T01:46:06.064Z,78.70
2018-05-31T01:47:08.244Z,78.70
2018-05-31T01:48:08.469Z,79.10
2018-05-31T01:49:06.344Z,79.10
2018-05-31T01:50:06.247Z,79.10
2018-05-31T01:51:11.278Z,79.00
2018-05-31T01:52:05.722Z,78.90
2018-05-31T01:53:06.779Z,79.00
2018-05-31T01:54:09.025Z,79.60
2018-05-31T01:55:08.798Z,79.40
2018-05-31T01:56:08.911Z,79.40
2018-05-31T01:57:09.109Z,79.20
2018-05-31T01:58:06.097Z,79.30
2018-05-31T01:59:08.276Z,79.30
2018-05-31T02:00:06.369Z,79.40
2018-05-31T02:01:09.454Z,80.00
2018-05-31T02:02:08.766Z,79.90
2018-05-31T02:03:05.824Z,79.80
2018-05-31T02:04:06.100Z,79.70
2018-05-31T02:05:08.364Z,79.50
2018-05-31T02:06:06.122Z,79.60
2018-05-31T02:07:08.323Z,80.20
2018-05-31T02:08:08.553Z,80.10
2018-05-31T02:09:06.151Z,80.10
2018-05-31T02:10:06.585Z,80.00
2018-05-31T02:11:06.385Z,79.90
2018-05-31T02:12:06.274Z,79.80
2018-05-31T02:13:08.570Z,79.60
2018-05-31T02:14:08.704Z,79.60
2018-05-31T02:15:06.193Z,79.50
2018-05-31T02:16:06.199Z,79.60
2018-05-31T02:17:08.759Z,79.80
2018-05-31T02:18:08.920Z,79.80
2018-05-31T02:19:07.891Z,79.70
2018-05-31T02:20:06.699Z,79.60
2018-05-31T02:21:06.320Z,79.50
2018-05-31T02:22:05.882Z,79.40
2018-05-31T02:23:05.922Z,79.50
2018-05-31T02:24:11.730Z,79.50
2018-05-31T02:25:08.881Z,79.80
2018-05-31T02:26:07.037Z,79.80
2018-05-31T02:27:05.604Z,79.90
2018-05-31T02:28:06.375Z,80.10
2018-05-31T02:29:05.569Z,79.90
2018-05-31T02:30:06.827Z,80.70
2018-05-31T02:31:07.997Z,81.50
2018-05-31T02:32:11.811Z,81.50
2018-05-31T02:33:06.762Z,81.60
2018-05-31T02:34:06.793Z,81.80
2018-05-31T02:35:05.446Z,81.60
2018-05-31T02:36:08.701Z,81.50
2018-05-31T02:37:06.819Z,81.50
2018-05-31T02:38:12.135Z,81.10
2018-05-31T02:39:06.277Z,81.10
2018-05-31T02:40:09.027Z,80.80
2018-05-31T02:41:06.162Z,80.80
2018-05-31T02:42:05.864Z,80.80
2018-05-31T02:43:05.697Z,81.20
2018-05-31T02:44:11.540Z,80.80
2018-05-31T02:45:10.775Z,80.70
2018-05-31T02:46:11.355Z,80.60
2018-05-31T02:47:06.422Z,80.60
2018-05-31T02:48:06.576Z,80.70
2018-05-31T02:49:06.891Z,81.30
2018-05-31T02:50:05.871Z,81.30
2018-05-31T02:51:08.201Z,81.50
2018-05-31T02:52:05.681Z,81.50
2018-05-31T02:53:06.414Z,81.20
2018-05-31T02:54:06.275Z,81.10
2018-05-31T02:55:06.589Z,81.00
2018-05-31T02:56:11.361Z,80.70
2018-05-31T02:57:05.559Z,80.70
2018-05-31T02:58:06.404Z,80.80
2018-05-31T02:59:08.420Z,81.80
2018-05-31T03:00:06.049Z,81.90
2018-05-31T03:01:06.080Z,81.60
2018-05-31T03:02:11.690Z,81.40
2018-05-31T03:03:08.899Z,81.30
2018-05-31T03:04:06.925Z,81.30
2018-05-31T03:05:06.533Z,81.30
2018-05-31T03:06:06.363Z,81.20
2018-05-31T03:07:06.229Z,81.00
2018-05-31T03:08:05.904Z,80.90
2018-05-31T03:09:05.625Z,80.80
2018-05-31T03:10:06.426Z,80.80
2018-05-31T03:11:06.408Z,80.80
2018-05-31T03:12:08.492Z,80.90
2018-05-31T03:13:06.950Z,80.80
2018-05-31T03:14:11.579Z,81.00
2018-05-31T03:15:06.363Z,81.00
2018-05-31T03:16:06.125Z,81.00
2018-05-31T03:17:10.768Z,81.20
2018-05-31T03:18:08.939Z,81.40
2018-05-31T03:19:08.213Z,82.10
2018-05-31T03:20:06.192Z,82.10
2018-05-31T03:21:06.200Z,81.80
2018-05-31T03:22:06.303Z,81.80
2018-05-31T03:23:05.458Z,81.70
2018-05-31T03:24:06.447Z,81.60
2018-05-31T03:25:07.401Z,81.70
2018-05-31T03:26:05.978Z,81.60
2018-05-31T03:27:08.254Z,81.80
2018-05-31T03:28:06.090Z,81.80
2018-05-31T03:29:06.357Z,81.60
2018-05-31T03:30:08.527Z,81.30
2018-05-31T03:31:13.853Z,81.30
2018-05-31T03:32:06.423Z,81.30
2018-05-31T03:33:08.783Z,81.70
2018-05-31T03:34:06.392Z,81.70
2018-05-31T03:35:06.277Z,81.70
2018-05-31T03:36:06.577Z,81.60
2018-05-31T03:37:06.308Z,81.80
2018-05-31T03:38:08.224Z,81.60
2018-05-31T03:39:06.182Z,81.60
2018-05-31T03:40:07.177Z,81.50
2018-05-31T03:41:14.628Z,81.30
2018-05-31T03:42:05.591Z,81.30
2018-05-31T03:43:06.592Z,81.20
2018-05-31T03:44:06.493Z,81.30
2018-05-31T03:45:09.066Z,81.40
2018-05-31T03:46:09.563Z,81.30
2018-05-31T03:47:10.891Z,81.40
2018-05-31T03:48:06.551Z,81.70
2018-05-31T03:49:06.429Z,81.80
2018-05-31T03:50:10.949Z,81.60
2018-05-31T03:51:06.789Z,81.60
2018-05-31T03:52:07.005Z,81.50
2018-05-31T03:53:10.729Z,81.40
2018-05-31T03:54:06.206Z,81.40
2018-05-31T03:55:08.434Z,81.20
2018-05-31T03:56:13.883Z,81.10
2018-05-31T03:57:06.881Z,81.10
2018-05-31T03:58:06.084Z,80.90
2018-05-31T03:59:08.966Z,80.50
2018-05-31T04:00:05.589Z,80.50
2018-05-31T04:01:07.645Z,80.10
2018-05-31T04:02:07.713Z,79.80
2018-05-31T04:03:08.420Z,79.60
2018-05-31T04:04:08.496Z,79.60
2018-05-31T04:05:08.504Z,79.70
2018-05-31T04:06:11.003Z,79.70
2018-05-31T04:07:06.118Z,79.80
2018-05-31T04:08:05.509Z,79.90
2018-05-31T04:09:08.892Z,79.90
2018-05-31T04:10:06.641Z,80.00
2018-05-31T04:11:06.431Z,79.90
2018-05-31T04:12:06.522Z,80.00
2018-05-31T04:13:11.095Z,79.80
2018-05-31T04:14:05.928Z,79.80
2018-05-31T04:15:05.894Z,79.80
2018-05-31T04:16:06.927Z,79.70
2018-05-31T04:17:10.104Z,79.60
2018-05-31T04:18:06.507Z,79.60
2018-05-31T04:19:08.845Z,79.60
2018-05-31T04:20:11.459Z,79.60
2018-05-31T04:21:06.492Z,79.60
2018-05-31T04:22:06.558Z,79.80
2018-05-31T04:23:06.142Z,79.90
2018-05-31T04:24:06.147Z,80.00
2018-05-31T04:25:12.226Z,80.30
2018-05-31T04:26:08.349Z,80.70
2018-05-31T04:27:08.587Z,81.00
2018-05-31T04:28:08.653Z,80.90
2018-05-31T04:29:06.198Z,80.90
2018-05-31T04:30:05.870Z,80.90
2018-05-31T04:31:10.685Z,81.10
2018-05-31T04:32:08.760Z,81.00
2018-05-31T04:33:08.808Z,81.00
2018-05-31T04:34:06.538Z,81.00
2018-05-31T04:35:06.682Z,81.00
2018-05-31T04:36:06.309Z,80.90
2018-05-31T04:37:11.298Z,80.90
2018-05-31T04:38:05.967Z,80.70
2018-05-31T04:39:05.593Z,80.40
2018-05-31T04:40:11.342Z,80.10
2018-05-31T04:41:06.525Z,79.70
2018-05-31T04:42:06.342Z,79.20
2018-05-31T04:43:06.726Z,78.50
2018-05-31T04:44:08.267Z,77.00
2018-05-31T04:45:08.298Z,76.40
2018-05-31T04:46:08.105Z,75.90
2018-05-31T04:47:05.609Z,75.90
2018-05-31T04:48:06.760Z,75.50
2018-05-31T04:49:11.637Z,75.10
2018-05-31T04:50:06.557Z,74.90
2018-05-31T04:51:11.386Z,74.10
2018-05-31T04:52:11.093Z,73.40
2018-05-31T04:53:06.223Z,73.40
2018-05-31T04:54:08.442Z,72.90
2018-05-31T04:55:06.529Z,72.80
2018-05-31T04:56:06.186Z,72.10
2018-05-31T04:57:10.763Z,71.00
2018-05-31T04:58:08.783Z,70.80
2018-05-31T04:59:08.594Z,70.70
2018-05-31T05:00:08.836Z,70.20
2018-05-31T05:01:07.136Z,70.20
2018-05-31T05:02:11.345Z,69.70
2018-05-31T05:03:11.441Z,68.80
2018-05-31T05:04:06.043Z,68.80
2018-05-31T05:05:08.247Z,68.30
2018-05-31T05:06:05.767Z,68.20
2018-05-31T05:07:06.827Z,67.50
2018-05-31T05:08:16.719Z,66.90
2018-05-31T05:09:06.319Z,66.90
2018-05-31T05:10:06.555Z,66.30
2018-05-31T05:11:05.827Z,65.20
2018-05-31T05:12:05.973Z,65.10
2018-05-31T05:13:09.246Z,64.60
2018-05-31T05:14:10.822Z,63.80
2018-05-31T05:15:06.437Z,63.80
2018-05-31T05:16:11.211Z,63.50
2018-05-31T05:17:08.423Z,63.00
2018-05-31T05:18:05.914Z,63.00
2018-05-31T05:19:06.577Z,62.50
2018-05-31T05:20:10.698Z,62.00
2018-05-31T05:21:08.782Z,62.00
2018-05-31T05:22:11.186Z,61.70
2018-05-31T05:23:10.801Z,61.30
2018-05-31T05:24:06.579Z,61.30
2018-05-31T05:25:06.405Z,61.00
2018-05-31T05:26:08.567Z,60.40
2018-05-31T05:27:06.422Z,60.40
2018-05-31T05:28:07.665Z,59.80
2018-05-31T05:29:06.351Z,59.60
2018-05-31T05:30:06.307Z,59.40
2018-05-31T05:31:06.063Z,58.60
2018-05-31T05:32:06.849Z,58.30
2018-05-31T05:33:11.475Z,57.10
2018-05-31T05:34:08.385Z,56.80
2018-05-31T05:35:11.037Z,56.40
2018-05-31T05:36:06.237Z,56.40
2018-05-31T05:37:06.532Z,56.20
2018-05-31T05:38:06.285Z,56.50
2018-05-31T05:39:07.242Z,55.60
2018-05-31T05:40:08.480Z,55.20
2018-05-31T05:41:06.202Z,55.20
2018-05-31T05:42:05.899Z,55.10
2018-05-31T05:43:05.558Z,55.00
2018-05-31T05:44:06.794Z,54.50
2018-05-31T05:45:06.855Z,54.10
2018-05-31T05:46:06.477Z,53.70
2018-05-31T05:47:08.092Z,52.90
2018-05-31T05:48:08.295Z,53.30
2018-05-31T05:49:13.472Z,53.40
2018-05-31T05:50:06.480Z,53.40
2018-05-31T05:51:06.311Z,53.00
2018-05-31T05:52:11.132Z,52.70
2018-05-31T05:53:06.583Z,52.70
2018-05-31T05:54:09.043Z,52.10
2018-05-31T05:55:06.010Z,52.10
2018-05-31T05:56:06.056Z,52.00
2018-05-31T05:57:05.718Z,51.60
2018-05-31T05:58:07.003Z,51.50
2018-05-31T05:59:06.084Z,51.10
2018-05-31T06:00:06.447Z,51.00
2018-05-31T06:01:06.589Z,50.90
2018-05-31T06:02:06.347Z,50.60
2018-05-31T06:03:06.117Z,50.10
2018-05-31T06:04:11.341Z,50.00
2018-05-31T06:05:05.591Z,49.90
2018-05-31T06:06:07.016Z,49.70
2018-05-31T06:07:08.272Z,48.20
2018-05-31T06:08:08.863Z,48.10
2018-05-31T06:09:09.022Z,47.80
2018-05-31T06:10:05.766Z,47.90
2018-05-31T06:11:11.590Z,47.10
2018-05-31T06:12:08.629Z,47.30
2018-05-31T06:13:10.355Z,46.90
2018-05-31T06:14:06.710Z,46.90
2018-05-31T06:15:06.616Z,46.90
2018-05-31T06:16:06.275Z,47.40
2018-05-31T06:17:06.458Z,46.80
2018-05-31T06:18:06.644Z,46.90
2018-05-31T06:19:06.607Z,46.40
2018-05-31T06:20:06.366Z,45.90
2018-05-31T06:21:06.828Z,45.30
2018-05-31T06:22:08.511Z,45.40
2018-05-31T06:23:05.977Z,45.40
2018-05-31T06:24:08.992Z,45.50
2018-05-31T06:25:08.052Z,45.50
2018-05-31T06:26:09.000Z,45.70
2018-05-31T06:27:10.624Z,45.90
2018-05-31T06:28:08.738Z,46.00
2018-05-31T06:29:06.402Z,46.00
2018-05-31T06:30:06.725Z,46.20
2018-05-31T06:31:06.011Z,46.40
2018-05-31T06:32:10.812Z,46.40
2018-05-31T06:33:08.827Z,46.80
2018-05-31T06:34:11.440Z,47.20
2018-05-31T06:35:08.648Z,47.40
2018-05-31T06:36:06.167Z,47.40
2018-05-31T06:37:06.003Z,47.30
2018-05-31T06:38:08.895Z,48.00
2018-05-31T06:39:06.327Z,48.00
2018-05-31T06:40:07.087Z,48.20
2018-05-31T06:41:06.180Z,48.60
2018-05-31T06:42:05.851Z,49.00
2018-05-31T06:43:05.512Z,49.40
2018-05-31T06:44:06.150Z,49.50
2018-05-31T06:45:06.055Z,49.70
2018-05-31T06:46:05.803Z,49.90
2018-05-31T06:47:06.585Z,49.80
2018-05-31T06:48:06.361Z,50.10
2018-05-31T06:49:06.672Z,50.40
2018-05-31T06:50:06.184Z,50.70
2018-05-31T06:51:05.883Z,50.90
2018-05-31T06:52:05.847Z,51.40
2018-05-31T06:53:05.588Z,51.60
2018-05-31T06:54:06.457Z,51.80
2018-05-31T06:55:06.593Z,51.90
2018-05-31T06:56:06.219Z,52.10
2018-05-31T06:57:12.510Z,52.30
2018-05-31T06:58:06.656Z,52.60
2018-05-31T06:59:09.122Z,52.70
2018-05-31T07:00:06.833Z,52.70
2018-05-31T07:01:06.170Z,52.80
2018-05-31T07:02:06.188Z,52.80
2018-05-31T07:03:06.274Z,52.60
2018-05-31T07:04:06.390Z,52.30
2018-05-31T07:05:06.235Z,52.50
2018-05-31T07:06:06.232Z,52.30
2018-05-31T07:07:06.214Z,52.30
2018-05-31T07:08:10.986Z,51.90
2018-05-31T07:09:06.894Z,51.90
2018-05-31T07:10:05.910Z,51.80
2018-05-31T07:11:06.778Z,51.90
2018-05-31T07:12:09.074Z,51.20
2018-05-31T07:13:05.593Z,51.20
2018-05-31T07:14:11.312Z,51.00
2018-05-31T07:15:05.989Z,50.70
2018-05-31T07:16:08.440Z,50.50
2018-05-31T07:17:06.008Z,50.50
2018-05-31T07:18:10.817Z,50.30
2018-05-31T07:19:13.816Z,49.70
2018-05-31T07:20:06.289Z,50.20
2018-05-31T07:21:13.586Z,49.90
2018-05-31T07:22:11.107Z,49.90
2018-05-31T07:23:08.231Z,49.80
2018-05-31T07:24:05.785Z,49.80
2018-05-31T07:25:06.668Z,50.00
2018-05-31T07:26:06.844Z,50.10
2018-05-31T07:27:05.552Z,49.60
2018-05-31T07:28:06.175Z,49.80
2018-05-31T07:29:13.470Z,50.00
2018-05-31T07:30:08.480Z,49.50
2018-05-31T07:31:08.539Z,49.50
2018-05-31T07:32:06.336Z,49.50
2018-05-31T07:33:11.068Z,49.20
2018-05-31T07:34:05.576Z,49.20
2018-05-31T07:35:05.965Z,48.90
2018-05-31T07:36:10.846Z,48.70
2018-05-31T07:37:08.970Z,48.80
2018-05-31T07:38:06.224Z,48.80
2018-05-31T07:39:08.459Z,48.10
2018-05-31T07:40:06.280Z,48.10
2018-05-31T07:41:08.470Z,47.10
2018-05-31T07:42:16.332Z,46.20
2018-05-31T07:43:11.120Z,46.10
2018-05-31T07:44:06.469Z,46.50
2018-05-31T07:45:06.170Z,46.50
2018-05-31T07:46:08.265Z,46.40
2018-05-31T07:47:08.271Z,46.40
2018-05-31T07:48:05.794Z,46.40
2018-05-31T07:49:09.049Z,46.20
2018-05-31T07:50:05.576Z,46.20
2018-05-31T07:51:08.792Z,45.90
2018-05-31T07:52:11.499Z,45.90
2018-05-31T07:53:06.521Z,46.50
2018-05-31T07:54:11.279Z,46.30
2018-05-31T07:55:08.569Z,46.30
2018-05-31T07:56:07.208Z,46.30
2018-05-31T07:57:06.098Z,46.00
2018-05-31T07:58:08.503Z,45.80
2018-05-31T07:59:06.483Z,45.80
2018-05-31T08:00:08.628Z,45.90
2018-05-31T08:01:06.158Z,45.90
2018-05-31T08:02:06.308Z,46.10
2018-05-31T08:03:11.327Z,46.10
2018-05-31T08:04:05.889Z,46.10
2018-05-31T08:05:08.394Z,45.40
2018-05-31T08:06:05.698Z,45.50
2018-05-31T08:07:08.937Z,45.40
2018-05-31T08:08:08.125Z,44.90
2018-05-31T08:09:05.587Z,45.00
2018-05-31T08:10:06.566Z,45.30
2018-05-31T08:11:08.878Z,45.70
2018-05-31T08:12:06.783Z,45.70
2018-05-31T08:13:06.594Z,45.60
2018-05-31T08:14:10.793Z,45.40
2018-05-31T08:15:06.729Z,45.60
2018-05-31T08:16:08.909Z,46.10
2018-05-31T08:17:06.304Z,46.10
2018-05-31T08:18:08.616Z,44.30
2018-05-31T08:19:08.178Z,44.80
2018-05-31T08:20:05.747Z,44.90
2018-05-31T08:21:10.650Z,45.50
2018-05-31T08:22:09.104Z,46.00
2018-05-31T08:23:08.503Z,46.00
2018-05-31T08:24:11.074Z,45.60
2018-05-31T08:25:06.274Z,45.60
2018-05-31T08:26:05.866Z,45.40
2018-05-31T08:27:05.521Z,45.10
2018-05-31T08:28:08.656Z,45.60
2018-05-31T08:29:06.299Z,45.60
2018-05-31T08:30:13.537Z,45.50
2018-05-31T08:31:10.704Z,45.50
2018-05-31T08:32:08.766Z,46.20
2018-05-31T08:33:08.184Z,46.30
2018-05-31T08:34:05.725Z,46.30
2018-05-31T08:35:08.919Z,46.00
2018-05-31T08:36:06.457Z,46.00
2018-05-31T08:37:08.210Z,45.80
2018-05-31T08:38:08.353Z,45.80
2018-05-31T08:39:06.024Z,45.80
2018-05-31T08:40:05.738Z,45.40
2018-05-31T08:41:08.979Z,44.80
2018-05-31T08:42:05.954Z,44.90
2018-05-31T08:43:06.307Z,45.00
2018-05-31T08:44:06.308Z,45.00
2018-05-31T08:45:06.346Z,44.20
2018-05-31T08:46:06.116Z,44.50
2018-05-31T08:47:06.426Z,44.50
2018-05-31T08:48:11.192Z,44.70
2018-05-31T08:49:05.620Z,44.30
2018-05-31T08:50:11.377Z,44.10
2018-05-31T08:51:08.407Z,44.30
2018-05-31T08:52:06.179Z,44.30
2018-05-31T08:53:05.855Z,43.40
2018-05-31T08:54:08.205Z,43.50
2018-05-31T08:55:05.969Z,43.50
2018-05-31T08:56:05.738Z,43.90
2018-05-31T08:57:11.508Z,44.10
2018-05-31T08:58:06.401Z,44.10
2018-05-31T08:59:06.030Z,44.20
2018-05-31T09:00:05.683Z,44.50
2018-05-31T09:01:05.805Z,44.80
2018-05-31T09:02:05.915Z,44.90
2018-05-31T09:03:05.606Z,44.60
2018-05-31T09:04:11.276Z,44.30
2018-05-31T09:05:06.188Z,44.30
2018-05-31T09:06:05.605Z,44.30
2018-05-31T09:07:06.344Z,44.00
2018-05-31T09:08:13.710Z,43.80
2018-05-31T09:09:06.620Z,43.80
2018-05-31T09:10:06.113Z,43.70
2018-05-31T09:11:06.102Z,43.50
2018-05-31T09:12:08.253Z,41.90
2018-05-31T09:13:08.561Z,43.00
2018-05-31T09:14:08.444Z,43.00
2018-05-31T09:15:05.792Z,43.00
2018-05-31T09:16:09.019Z,42.80
2018-05-31T09:17:08.145Z,41.60
2018-05-31T09:18:05.911Z,41.50
2018-05-31T09:19:05.916Z,41.60
2018-05-31T09:20:06.168Z,40.30
2018-05-31T09:21:10.783Z,40.20
2018-05-31T09:22:07.341Z,39.90
2018-05-31T09:23:06.186Z,40.10
2018-05-31T09:24:06.241Z,40.80
2018-05-31T09:25:08.429Z,41.20
2018-05-31T09:26:06.401Z,41.20
2018-05-31T09:27:11.004Z,41.00
2018-05-31T09:28:08.852Z,41.20
2018-05-31T09:29:07.028Z,41.20
2018-05-31T09:30:06.093Z,41.20
2018-05-31T09:31:09.084Z,41.30
2018-05-31T09:32:10.985Z,41.30
2018-05-31T09:33:06.453Z,40.80
2018-05-31T09:34:06.095Z,40.70
2018-05-31T09:35:06.508Z,40.90
2018-05-31T09:36:06.527Z,41.10
2018-05-31T09:37:06.312Z,40.90
2018-05-31T09:38:13.661Z,41.00
2018-05-31T09:39:06.285Z,41.70
2018-05-31T09:40:06.302Z,41.60
2018-05-31T09:41:06.064Z,41.70
2018-05-31T09:42:06.249Z,41.50
2018-05-31T09:43:06.686Z,41.00
2018-05-31T09:44:06.688Z,41.10
2018-05-31T09:45:06.444Z,41.40
2018-05-31T09:46:06.518Z,41.40
2018-05-31T09:47:08.768Z,41.20
2018-05-31T09:48:08.864Z,40.80
2018-05-31T09:49:06.912Z,40.80
2018-05-31T09:50:06.005Z,40.20
2018-05-31T09:51:05.603Z,40.10
2018-05-31T09:52:06.328Z,40.40
2018-05-31T09:53:08.510Z,40.50
2018-05-31T09:54:06.547Z,40.50
2018-05-31T09:55:05.889Z,40.70
2018-05-31T09:56:08.934Z,39.60
2018-05-31T09:57:05.819Z,39.50
2018-05-31T09:58:06.527Z,39.60
2018-05-31T09:59:09.028Z,39.60
2018-05-31T10:00:11.388Z,39.60
2018-05-31T10:01:06.490Z,39.80
2018-05-31T10:02:06.271Z,39.80
2018-05-31T10:03:08.121Z,39.40
2018-05-31T10:04:05.973Z,39.30
2018-05-31T10:05:05.597Z,39.10
2018-05-31T10:06:06.834Z,39.10
2018-05-31T10:07:06.565Z,39.10
2018-05-31T10:08:06.288Z,38.60
2018-05-31T10:09:08.225Z,39.00
2018-05-31T10:10:08.447Z,38.60
2018-05-31T10:11:06.299Z,38.60
2018-05-31T10:12:06.392Z,38.70
2018-05-31T10:13:06.492Z,38.10
2018-05-31T10:14:09.039Z,37.40
2018-05-31T10:15:08.158Z,37.80
2018-05-31T10:16:06.048Z,37.80
2018-05-31T10:17:10.930Z,38.30
2018-05-31T10:18:08.139Z,36.90
2018-05-31T10:19:08.138Z,36.60
2018-05-31T10:20:05.731Z,36.50
2018-05-31T10:21:06.499Z,35.70
2018-05-31T10:22:06.377Z,36.00
2018-05-31T10:23:06.303Z,36.20
2018-05-31T10:24:06.455Z,36.50
2018-05-31T10:25:06.213Z,37.50
2018-05-31T10:26:06.156Z,37.80
2018-05-31T10:27:08.357Z,38.10
2018-05-31T10:28:08.552Z,38.10
2018-05-31T10:29:08.712Z,38.20
2018-05-31T10:30:08.521Z,38.00
2018-05-31T10:31:06.484Z,38.00
2018-05-31T10:32:13.761Z,38.20
2018-05-31T10:33:11.449Z,38.20
2018-05-31T10:34:06.229Z,38.40
2018-05-31T10:35:07.023Z,37.80
2018-05-31T10:36:06.120Z,37.10
2018-05-31T10:37:08.388Z,35.50
2018-05-31T10:38:06.201Z,35.60
2018-05-31T10:39:10.943Z,35.70
2018-05-31T10:40:06.477Z,35.80
2018-05-31T10:41:06.359Z,36.30
2018-05-31T10:42:06.157Z,36.50
2018-05-31T10:43:08.679Z,37.00
2018-05-31T10:44:08.746Z,36.80
2018-05-31T10:45:08.738Z,36.70
2018-05-31T10:46:06.617Z,36.60
2018-05-31T10:47:09.894Z,36.80
2018-05-31T10:48:08.500Z,37.10
2018-05-31T10:49:05.907Z,37.00
2018-05-31T10:50:06.107Z,36.90
2018-05-31T10:51:10.900Z,36.50
2018-05-31T10:52:06.269Z,36.40
2018-05-31T10:53:11.091Z,36.50
2018-05-31T10:54:06.410Z,36.20
2018-05-31T10:55:06.506Z,36.90
2018-05-31T10:56:08.742Z,36.80
2018-05-31T10:57:06.469Z,36.80
2018-05-31T10:58:06.287Z,37.10
2018-05-31T10:59:06.699Z,37.70
2018-05-31T11:00:09.146Z,37.10
2018-05-31T11:01:11.586Z,37.00
2018-05-31T11:02:08.534Z,37.30
2018-05-31T11:03:11.208Z,37.20
2018-05-31T11:04:08.007Z,37.70
2018-05-31T11:05:08.234Z,38.10
2018-05-31T11:06:06.389Z,38.10
2018-05-31T11:07:06.176Z,36.80
2018-05-31T11:08:09.099Z,36.50
2018-05-31T11:09:06.054Z,36.50
2018-05-31T11:10:08.272Z,36.10
2018-05-31T11:11:08.328Z,35.20
2018-05-31T11:12:06.287Z,35.10
2018-05-31T11:13:07.228Z,35.50
2018-05-31T11:14:14.083Z,36.00
2018-05-31T11:15:05.692Z,36.00
2018-05-31T11:16:06.738Z,36.40
2018-05-31T11:17:06.053Z,36.90
2018-05-31T11:18:10.775Z,37.20
2018-05-31T11:19:08.999Z,37.30
2018-05-31T11:20:05.803Z,37.40
2018-05-31T11:21:08.102Z,37.00
2018-05-31T11:22:10.871Z,36.50
2018-05-31T11:23:10.951Z,36.30
2018-05-31T11:24:09.233Z,36.30
2018-05-31T11:25:08.874Z,35.80
2018-05-31T11:26:06.452Z,35.80
2018-05-31T11:27:08.609Z,34.50
2018-05-31T11:28:06.108Z,34.50
2018-05-31T11:29:06.802Z,34.40
2018-05-31T11:30:08.944Z,34.50
2018-05-31T11:31:11.603Z,35.30
2018-05-31T11:32:06.217Z,35.30
2018-05-31T11:33:06.559Z,35.20
2018-05-31T11:34:06.252Z,35.00
2018-05-31T11:35:13.491Z,35.50
2018-05-31T11:36:06.478Z,36.10
2018-05-31T11:37:06.615Z,36.00
2018-05-31T11:38:13.900Z,34.30
2018-05-31T11:39:07.103Z,34.30
2018-05-31T11:40:05.849Z,34.40
2018-05-31T11:41:06.459Z,34.70
2018-05-31T11:42:06.617Z,34.50
2018-05-31T11:43:06.581Z,34.10
2018-05-31T11:44:06.851Z,33.80
2018-05-31T11:45:05.997Z,34.10
2018-05-31T11:46:06.058Z,34.20
2018-05-31T11:47:06.280Z,34.00
2018-05-31T11:48:08.500Z,34.00
2018-05-31T11:49:06.618Z,34.00
2018-05-31T11:50:11.355Z,34.10
2018-05-31T11:51:17.188Z,33.90
2018-05-31T11:52:06.293Z,33.90
2018-05-31T11:53:08.618Z,34.30
2018-05-31T11:54:08.691Z,34.40
2018-05-31T11:55:06.746Z,34.40
2018-05-31T11:56:10.925Z,34.50
2018-05-31T11:57:06.544Z,34.50
2018-05-31T11:58:08.752Z,33.60
2018-05-31T11:59:06.357Z,33.60
2018-05-31T12:00:06.226Z,34.00
2018-05-31T12:01:05.798Z,34.20
2018-05-31T12:02:06.602Z,34.80
2018-05-31T12:03:08.729Z,34.20
2018-05-31T12:04:11.529Z,34.80
2018-05-31T12:05:07.344Z,34.90
2018-05-31T12:06:08.572Z,35.00
2018-05-31T12:07:06.157Z,34.90
2018-05-31T12:08:08.871Z,35.30
2018-05-31T12:09:05.791Z,35.30
2018-05-31T12:10:06.941Z,35.20
2018-05-31T12:11:06.019Z,35.40
2018-05-31T12:12:11.957Z,35.50
2018-05-31T12:13:05.552Z,35.50
2018-05-31T12:14:08.933Z,35.90
2018-05-31T12:15:10.680Z,36.00
2018-05-31T12:16:06.388Z,36.10
2018-05-31T12:17:11.238Z,36.30
2018-05-31T12:18:05.761Z,36.20
2018-05-31T12:19:10.625Z,36.20
2018-05-31T12:20:11.560Z,36.00
2018-05-31T12:21:08.691Z,35.60
2018-05-31T12:22:06.869Z,35.60
2018-05-31T12:23:06.965Z,36.10
2018-05-31T12:24:06.771Z,35.90
2018-05-31T12:25:11.500Z,35.90
2018-05-31T12:26:06.272Z,36.00
2018-05-31T12:27:11.115Z,35.70
2018-05-31T12:28:05.852Z,35.60
2018-05-31T12:29:10.566Z,35.50
2018-05-31T12:30:08.457Z,35.30
2018-05-31T12:31:10.732Z,35.30
2018-05-31T12:32:06.387Z,35.50
2018-05-31T12:33:06.257Z,35.70
2018-05-31T12:34:11.058Z,35.80
2018-05-31T12:35:06.046Z,35.00
2018-05-31T12:36:11.237Z,34.50
2018-05-31T12:37:05.895Z,34.80
2018-05-31T12:38:08.156Z,33.80
2018-05-31T12:39:06.015Z,33.80
2018-05-31T12:40:10.688Z,33.30
2018-05-31T12:41:08.834Z,33.60
2018-05-31T12:42:06.136Z,33.60
2018-05-31T12:43:06.223Z,33.90
2018-05-31T12:44:06.019Z,34.10
2018-05-31T12:45:06.100Z,33.80
2018-05-31T12:46:06.203Z,33.60
2018-05-31T12:47:06.337Z,33.70
2018-05-31T12:48:08.459Z,33.50
2018-05-31T12:49:08.572Z,33.90
2018-05-31T12:50:06.081Z,33.90
2018-05-31T12:51:05.872Z,34.00
2018-05-31T12:52:10.695Z,34.40